createdAt,value
2018-02-21T00:00:05.372Z,69.50
2018-02-21T00:05:06.684Z,81.50
2018-02-21T00:10:08.066Z,76.83
2018-02-21T00:15:09.381Z,98.73
2018-02-21T00:20:10.714Z,87.70
2018-02-21T00:25:12.863Z,74.83
2018-02-21T00:30:14.219Z,78.93
2018-02-21T00:35:15.547Z,71.27
2018-02-21T00:40:16.923Z,81.93
2018-02-21T00:45:18.244Z,78.33
2018-02-21T00:50:19.556Z,74.37
2018-02-21T00:55:21.134Z,68.80
2018-02-21T01:00:22.602Z,74.87
2018-02-21T01:05:23.927Z,77.57
2018-02-21T01:10:25.292Z,76.40
2018-02-21T01:15:26.638Z,83.10
2018-02-21T01:20:27.984Z,83.40
2018-02-21T01:25:29.354Z,83.70
2018-02-21T01:30:30.688Z,73.30
2018-02-21T01:35:32.794Z,86.77
2018-02-21T01:40:34.186Z,72.20
2018-02-21T01:45:36.268Z,78.73
2018-02-21T01:50:51.746Z,79.47
2018-02-21T01:55:53.076Z,78.80
2018-02-21T02:00:54.560Z,81.53
2018-02-21T02:05:55.883Z,72.50
2018-02-21T02:10:57.927Z,69.30
2018-02-21T02:15:59.243Z,78.37
2018-02-21T02:21:00.635Z,75.13
2018-02-21T02:26:01.991Z,74.60
2018-02-21T02:31:03.328Z,84.37
2018-02-21T02:36:04.684Z,70.67
2018-02-21T02:41:06.031Z,75.30
2018-02-21T02:46:08.128Z,74.40
2018-02-21T02:51:09.473Z,68.03
2018-02-21T02:56:10.825Z,75.53
2018-02-21T03:01:12.935Z,73.70
2018-02-21T03:06:15.036Z,81.30
2018-02-21T03:11:17.145Z,73.70
2018-02-21T03:16:19.336Z,81.13
2018-02-21T03:21:20.663Z,79.20
2018-02-21T03:26:22.051Z,82.97
2018-02-21T03:31:23.375Z,79.80
2018-02-21T03:36:24.735Z,67.90
2018-02-21T03:41:26.054Z,76.80
2018-02-21T03:46:27.373Z,79.03
2018-02-21T03:51:28.722Z,70.70
2018-02-21T03:56:30.076Z,82.03
2018-02-21T04:01:32.150Z,66.00
2018-02-21T04:06:33.519Z,69.43
2018-02-21T04:11:34.863Z,71.53
2018-02-21T04:16:36.979Z,69.83
2018-02-21T04:21:38.352Z,65.90
2018-02-21T04:26:39.707Z,63.40
2018-02-21T04:31:41.107Z,77.53
2018-02-21T04:36:42.485Z,66.70
2018-02-21T04:41:43.907Z,73.90
2018-02-21T04:46:45.256Z,70.87
2018-02-21T04:51:46.571Z,69.67
2018-02-21T04:56:52.812Z,67.60
2018-02-21T05:01:54.190Z,75.47
2018-02-21T05:06:56.326Z,71.43
2018-02-21T05:11:57.651Z,74.63
2018-02-21T05:16:59.006Z,72.03
2018-02-21T05:22:00.352Z,61.13
2018-02-21T05:27:01.733Z,64.40
2018-02-21T05:32:03.084Z,63.20
2018-02-21T05:37:04.440Z,61.03
2018-02-21T05:42:06.591Z,61.70
2018-02-21T05:47:07.972Z,64.20
2018-02-21T05:52:09.351Z,52.93
2018-02-21T05:57:10.748Z,62.50
2018-02-21T06:02:12.197Z,59.90
2018-02-21T06:07:13.555Z,51.20
2018-02-21T06:12:14.916Z,56.73
2018-02-21T06:17:16.237Z,57.40
2018-02-21T06:22:17.627Z,58.20
2018-02-21T06:27:19.061Z,66.80
2018-02-21T06:32:20.411Z,63.50
2018-02-21T06:37:21.761Z,63.87
2018-02-21T06:42:23.824Z,59.60
2018-02-21T06:47:25.164Z,62.17
2018-02-21T06:52:26.524Z,62.40
2018-02-21T06:57:28.786Z,57.77
2018-02-21T07:02:34.024Z,66.27
2018-02-21T07:07:36.100Z,65.63
2018-02-21T07:12:44.404Z,63.77
2018-02-21T07:17:45.902Z,61.80
2018-02-21T07:22:48.249Z,54.93
2018-02-21T07:27:49.661Z,56.83
2018-02-21T07:32:50.996Z,56.27
2018-02-21T07:37:52.321Z,53.87
2018-02-21T07:42:53.708Z,58.03
2018-02-21T07:47:55.067Z,53.60
2018-02-21T07:52:56.834Z,51.90
2018-02-21T07:57:58.271Z,50.83
2018-02-21T08:02:59.679Z,59.30
2018-02-21T08:08:01.327Z,47.40
2018-02-21T08:13:03.419Z,54.70
2018-02-21T08:18:05.610Z,64.83
2018-02-21T08:23:06.963Z,45.80
2018-02-21T08:28:08.370Z,46.40
2018-02-21T08:33:09.818Z,47.20
2018-02-21T08:38:12.708Z,55.57
2018-02-21T08:43:14.077Z,48.07
2018-02-21T08:48:15.494Z,46.47
2018-02-21T08:53:16.827Z,54.87
2018-02-21T08:58:18.209Z,51.07
2018-02-21T09:03:19.608Z,47.13
2018-02-21T09:08:20.971Z,51.80
2018-02-21T09:13:23.047Z,47.40
2018-02-21T09:18:24.392Z,46.73
2018-02-21T09:23:25.790Z,45.53
2018-02-21T09:28:27.364Z,42.73
2018-02-21T09:33:29.438Z,40.50
2018-02-21T09:38:30.812Z,44.17
2018-02-21T09:43:32.167Z,53.00
2018-02-21T09:48:33.579Z,48.93
2018-02-21T09:53:34.974Z,44.47
2018-02-21T09:58:36.361Z,46.70
2018-02-21T10:03:37.732Z,41.67
2018-02-21T10:08:39.065Z,41.47
2018-02-21T10:13:40.487Z,36.00
2018-02-21T10:18:41.810Z,41.50
2018-02-21T10:23:43.180Z,42.00
2018-02-21T10:28:44.579Z,41.70
2018-02-21T10:33:45.938Z,42.87
2018-02-21T10:38:47.344Z,42.23
2018-02-21T10:43:49.442Z,40.77
2018-02-21T10:48:51.565Z,40.90
2018-02-21T10:53:53.640Z,44.90
2018-02-21T10:58:55.008Z,35.50
2018-02-21T11:03:56.390Z,38.80
2018-02-21T11:08:57.743Z,35.77
2018-02-21T11:13:59.817Z,36.20
2018-02-21T11:19:01.175Z,37.43
2018-02-21T11:24:02.572Z,34.47
2018-02-21T11:29:04.007Z,32.40
2018-02-21T11:34:06.078Z,36.40
2018-02-21T11:39:07.415Z,30.47
2018-02-21T11:44:09.539Z,28.40
2018-02-21T11:49:10.911Z,33.53
2018-02-21T11:54:13.063Z,23.80
2018-02-21T11:59:15.595Z,25.57
2018-02-21T12:04:17.127Z,25.50
2018-02-21T12:09:19.755Z,21.83
2018-02-21T12:14:21.196Z,26.23
2018-02-21T12:19:22.692Z,26.70
2018-02-21T12:24:24.048Z,27.20
2018-02-21T12:29:25.437Z,28.10
2018-02-21T12:34:26.815Z,28.77
2018-02-21T12:39:33.275Z,27.63
2018-02-21T12:44:34.655Z,28.77
2018-02-21T12:49:37.398Z,27.10
2018-02-21T12:54:39.276Z,24.27
2018-02-21T12:59:40.788Z,26.77
2018-02-21T13:04:43.428Z,25.87
2018-02-21T13:09:45.548Z,29.30
2018-02-21T13:14:46.931Z,27.10
2018-02-21T13:19:49.090Z,32.10
2018-02-21T13:24:50.688Z,29.87
2018-02-21T13:29:52.062Z,30.03
2018-02-21T13:34:53.607Z,30.87
2018-02-21T13:39:54.973Z,30.07
2018-02-21T13:44:56.355Z,28.90
2018-02-21T13:49:57.735Z,29.67
2018-02-21T13:54:59.132Z,25.20
2018-02-21T14:00:00.585Z,21.80
2018-02-21T14:05:02.713Z,28.90
2018-02-21T14:10:04.121Z,24.90
2018-02-21T14:15:05.526Z,20.60
2018-02-21T14:20:06.927Z,28.67
2018-02-21T14:25:08.332Z,29.47
2018-02-21T14:30:09.716Z,29.00
2018-02-21T14:35:11.087Z,22.57
2018-02-21T14:40:12.467Z,22.70
2018-02-21T14:45:13.887Z,20.60
2018-02-21T14:50:15.260Z,22.87
2018-02-21T14:55:16.624Z,25.03
2018-02-21T15:00:17.985Z,24.17
2018-02-21T15:05:20.092Z,23.40
2018-02-21T15:10:22.508Z,27.30
2018-02-21T15:15:24.606Z,27.03
2018-02-21T15:20:26.764Z,22.40
2018-02-21T15:25:28.118Z,19.83
2018-02-21T15:30:30.640Z,21.60
2018-02-21T15:35:32.441Z,21.90
2018-02-21T15:40:41.208Z,24.77
2018-02-21T15:45:42.800Z,21.33
2018-02-21T15:50:44.284Z,27.63
2018-02-21T15:55:45.789Z,22.90
2018-02-21T16:00:47.277Z,31.23
2018-02-21T16:05:48.650Z,26.33
2018-02-21T16:10:50.768Z,30.10
2018-02-21T16:15:52.083Z,29.53
2018-02-21T16:20:53.487Z,25.23
2018-02-21T16:25:54.928Z,25.53
2018-02-21T16:30:56.391Z,21.30
2018-02-21T16:35:57.758Z,27.00
2018-02-21T16:40:59.148Z,26.33
2018-02-21T16:46:00.520Z,27.13
2018-02-21T16:51:01.925Z,28.00
2018-02-21T16:56:03.321Z,31.63
2018-02-21T17:01:04.694Z,47.83
2018-02-21T17:06:07.007Z,26.30
2018-02-21T17:11:08.429Z,56.30
2018-02-21T17:16:09.811Z,29.27
2018-02-21T17:21:11.123Z,30.13
2018-02-21T17:26:12.515Z,49.47
2018-02-21T17:31:13.873Z,121.43
2018-02-21T17:36:15.518Z,59.60
2018-02-21T17:41:32.669Z,44.90
2018-02-21T17:46:34.011Z,36.53
2018-02-21T17:51:35.371Z,49.10
2018-02-21T17:56:37.459Z,28.90
2018-02-21T18:01:38.890Z,70.57
2018-02-21T18:06:40.273Z,67.23
2018-02-21T18:11:41.652Z,130.30
2018-02-21T18:16:43.862Z,61.23
2018-02-21T18:21:48.899Z,116.97
2018-02-21T18:26:50.239Z,109.03
2018-02-21T18:31:51.677Z,25.73
2018-02-21T18:36:53.207Z,40.37
2018-02-21T18:41:54.651Z,36.70
2018-02-21T18:46:56.039Z,35.83
2018-02-21T18:51:57.411Z,29.13
2018-02-21T18:56:58.847Z,31.67
2018-02-21T19:02:00.239Z,30.80
2018-02-21T19:07:02.996Z,34.10
2018-02-21T19:12:05.102Z,35.60
2018-02-21T19:17:07.178Z,32.90
2018-02-21T19:22:09.296Z,31.20
2018-02-21T19:27:10.692Z,31.73
2018-02-21T19:32:13.051Z,44.00
2018-02-21T19:37:15.275Z,25.23
2018-02-21T19:42:16.640Z,40.33
2018-02-21T19:47:17.991Z,27.47
2018-02-21T19:52:20.271Z,28.33
2018-02-21T19:57:22.528Z,21.77
2018-02-21T20:02:23.935Z,19.77
2018-02-21T20:07:26.043Z,21.13
2018-02-21T20:12:27.431Z,20.50
2018-02-21T20:17:29.601Z,26.23
2018-02-21T20:22:30.940Z,21.80
2018-02-21T20:27:32.321Z,23.43
2018-02-21T20:32:33.691Z,22.33
2018-02-21T20:37:35.941Z,19.03
2018-02-21T20:42:37.420Z,17.80
2018-02-21T20:47:39.572Z,20.70
2018-02-21T20:52:40.921Z,24.10
2018-02-21T20:57:42.384Z,18.00
2018-02-21T21:02:43.907Z,23.10
2018-02-21T21:07:45.271Z,26.97
2018-02-21T21:12:46.659Z,25.73
2018-02-21T21:17:47.997Z,19.83
2018-02-21T21:22:49.468Z,20.80
2018-02-21T21:27:50.828Z,20.70
2018-02-21T21:32:52.172Z,19.93
2018-02-21T21:37:53.645Z,21.37
2018-02-21T21:42:55.735Z,39.13
2018-02-21T21:47:57.818Z,25.43
2018-02-21T21:52:59.431Z,17.90
2018-02-21T21:58:01.526Z,22.73
2018-02-21T22:03:03.067Z,20.43
2018-02-21T22:08:04.579Z,17.40
2018-02-21T22:13:05.955Z,22.43
2018-02-21T22:18:07.461Z,18.40
2018-02-21T22:23:08.843Z,19.40
2018-02-21T22:28:10.152Z,20.97
2018-02-21T22:33:11.579Z,19.97
2018-02-21T22:38:12.975Z,21.67
2018-02-21T22:43:15.083Z,19.00
2018-02-21T22:48:16.483Z,19.77
2018-02-21T22:53:17.831Z,20.57
2018-02-21T22:58:19.181Z,18.40
2018-02-21T23:03:20.530Z,17.57
2018-02-21T23:08:22.041Z,19.20
2018-02-21T23:13:24.180Z,21.37
2018-02-21T23:18:25.521Z,23.13
2018-02-21T23:23:26.926Z,22.83
2018-02-21T23:28:29.005Z,23.50
2018-02-21T23:33:30.315Z,19.30
2018-02-21T23:38:32.415Z,22.60
2018-02-21T23:43:33.776Z,23.73
2018-02-21T23:48:35.220Z,27.17
2018-02-21T23:53:36.707Z,21.30
2018-02-21T23:58:38.767Z,17.80
